sensor_id;sensor_type;location;lat;lon;timestamp;P1;durP1;ratioP1;P2;durP2;ratioP2
9874;SDS011;4976;46.786;7.632;2023-03-20T06:43:16;2.10;;;1.90;;
9874;SDS011;4976;46.786;7.632;2023-03-20T06:46:04;2.70;;;2.30;;
9874;SDS011;4976;46.786;7.632;2023-03-20T06:48:31;2.90;;;2.00;;
9874;SDS011;4976;46.786;7.632;2023-03-20T06:50:59;2.47;;;2.27;;
9874;SDS011;4976;46.786;7.632;2023-03-20T06:53:28;2.70;;;2.50;;
9874;SDS011;4976;46.786;7.632;2023-03-20T06:55:55;3.30;;;2.40;;
9874;SDS011;4976;46.786;7.632;2023-03-20T06:58:22;2.60;;;2.40;;
9874;SDS011;4976;46.786;7.632;2023-03-20T07:00:49;2.70;;;2.50;;
9874;SDS011;4976;46.786;7.632;2023-03-20T07:03:18;2.50;;;2.30;;
9874;SDS011;4976;46.786;7.632;2023-03-20T07:05:46;2.90;;;2.50;;
9874;SDS011;4976;46.786;7.632;2023-03-20T07:08:13;2.90;;;2.63;;
9874;SDS011;4976;46.786;7.632;2023-03-20T07:10:42;3.00;;;2.80;;
9874;SDS011;4976;46.786;7.632;2023-03-20T07:13:09;2.60;;;2.40;;
9874;SDS011;4976;46.786;7.632;2023-03-20T07:15:36;2.63;;;2.43;;
9874;SDS011;4976;46.786;7.632;2023-03-20T07:18:03;3.33;;;2.93;;
9874;SDS011;4976;46.786;7.632;2023-03-20T07:20:30;3.10;;;2.80;;
9874;SDS011;4976;46.786;7.632;2023-03-20T07:22:57;3.30;;;3.00;;
9874;SDS011;4976;46.786;7.632;2023-03-20T07:25:25;2.57;;;2.37;;
9874;SDS011;4976;46.786;7.632;2023-03-20T07:27:54;2.50;;;2.30;;
9874;SDS011;4976;46.786;7.632;2023-03-20T07:30:21;2.70;;;2.50;;
9874;SDS011;4976;46.786;7.632;2023-03-20T07:32:48;2.80;;;2.17;;
9874;SDS011;4976;46.786;7.632;2023-03-20T07:35:15;4.47;;;2.83;;
9874;SDS011;4976;46.786;7.632;2023-03-20T07:37:42;4.83;;;2.80;;
9874;SDS011;4976;46.786;7.632;2023-03-20T07:40:10;3.37;;;3.03;;
9874;SDS011;4976;46.786;7.632;2023-03-20T07:42:38;2.40;;;2.30;;
9874;SDS011;4976;46.786;7.632;2023-03-20T07:45:07;5.53;;;2.87;;
9874;SDS011;4976;46.786;7.632;2023-03-20T07:47:35;2.77;;;2.50;;
9874;SDS011;4976;46.786;7.632;2023-03-20T07:50:02;2.90;;;2.60;;
9874;SDS011;4976;46.786;7.632;2023-03-20T07:52:29;4.53;;;2.60;;
9874;SDS011;4976;46.786;7.632;2023-03-20T07:54:56;2.60;;;2.27;;
9874;SDS011;4976;46.786;7.632;2023-03-20T07:57:23;3.07;;;2.67;;
9874;SDS011;4976;46.786;7.632;2023-03-20T07:59:51;4.57;;;2.27;;
9874;SDS011;4976;46.786;7.632;2023-03-20T08:02:19;2.50;;;2.30;;
9874;SDS011;4976;46.786;7.632;2023-03-20T08:04:46;2.30;;;2.10;;
9874;SDS011;4976;46.786;7.632;2023-03-20T08:07:14;2.53;;;2.23;;
9874;SDS011;4976;46.786;7.632;2023-03-20T08:09:41;2.43;;;2.23;;
9874;SDS011;4976;46.786;7.632;2023-03-20T08:12:14;2.73;;;2.53;;
9874;SDS011;4976;46.786;7.632;2023-03-20T08:14:41;2.80;;;2.50;;
9874;SDS011;4976;46.786;7.632;2023-03-20T08:17:08;2.60;;;2.40;;
9874;SDS011;4976;46.786;7.632;2023-03-20T08:19:37;4.80;;;2.33;;
9874;SDS011;4976;46.786;7.632;2023-03-20T08:22:04;2.37;;;2.17;;
9874;SDS011;4976;46.786;7.632;2023-03-20T08:24:31;2.50;;;2.30;;
9874;SDS011;4976;46.786;7.632;2023-03-20T08:26:58;2.77;;;2.57;;
9874;SDS011;4976;46.786;7.632;2023-03-20T08:29:25;2.33;;;2.13;;
9874;SDS011;4976;46.786;7.632;2023-03-20T08:31:53;2.17;;;1.80;;
9874;SDS011;4976;46.786;7.632;2023-03-20T08:34:21;2.00;;;1.90;;
9874;SDS011;4976;46.786;7.632;2023-03-20T08:36:52;3.13;;;2.83;;
9874;SDS011;4976;46.786;7.632;2023-03-20T08:39:19;2.07;;;1.97;;
9874;SDS011;4976;46.786;7.632;2023-03-20T08:41:47;3.10;;;2.20;;
9874;SDS011;4976;46.786;7.632;2023-03-20T08:44:16;2.10;;;1.87;;
9874;SDS011;4976;46.786;7.632;2023-03-20T08:46:43;1.80;;;1.70;;
9874;SDS011;4976;46.786;7.632;2023-03-20T08:49:11;1.80;;;1.70;;
9874;SDS011;4976;46.786;7.632;2023-03-20T08:51:38;2.60;;;1.90;;
9874;SDS011;4976;46.786;7.632;2023-03-20T08:54:08;1.83;;;1.73;;
9874;SDS011;4976;46.786;7.632;2023-03-20T08:56:35;1.63;;;1.53;;
9874;SDS011;4976;46.786;7.632;2023-03-20T08:59:04;2.10;;;1.90;;
9874;SDS011;4976;46.786;7.632;2023-03-20T09:01:31;1.70;;;1.60;;
9874;SDS011;4976;46.786;7.632;2023-03-20T09:03:58;1.77;;;1.67;;
9874;SDS011;4976;46.786;7.632;2023-03-20T09:06:26;1.90;;;1.70;;
9874;SDS011;4976;46.786;7.632;2023-03-20T09:08:53;1.97;;;1.87;;
9874;SDS011;4976;46.786;7.632;2023-03-20T09:11:23;1.83;;;1.70;;
9874;SDS011;4976;46.786;7.632;2023-03-20T09:13:50;2.10;;;1.90;;
9874;SDS011;4976;46.786;7.632;2023-03-20T09:16:17;1.70;;;1.60;;
9874;SDS011;4976;46.786;7.632;2023-03-20T09:18:44;5.47;;;2.20;;
9874;SDS011;4976;46.786;7.632;2023-03-20T09:21:12;1.87;;;1.67;;
9874;SDS011;4976;46.786;7.632;2023-03-20T09:23:39;2.27;;;1.50;;
9874;SDS011;4976;46.786;7.632;2023-03-20T09:26:06;1.60;;;1.50;;
9874;SDS011;4976;46.786;7.632;2023-03-20T09:28:34;1.77;;;1.50;;
9874;SDS011;4976;46.786;7.632;2023-03-20T09:31:02;2.10;;;1.97;;
9874;SDS011;4976;46.786;7.632;2023-03-20T09:33:29;1.47;;;1.33;;
9874;SDS011;4976;46.786;7.632;2023-03-20T09:35:56;1.43;;;1.33;;
9874;SDS011;4976;46.786;7.632;2023-03-20T09:38:24;1.67;;;1.57;;
9874;SDS011;4976;46.786;7.632;2023-03-20T09:40:53;1.80;;;1.70;;
9874;SDS011;4976;46.786;7.632;2023-03-20T09:43:28;1.93;;;1.47;;
9874;SDS011;4976;46.786;7.632;2023-03-20T09:46:13;1.50;;;1.40;;
9874;SDS011;4976;46.786;7.632;2023-03-20T09:48:52;1.50;;;1.40;;
9874;SDS011;4976;46.786;7.632;2023-03-20T09:51:28;1.87;;;1.50;;
9874;SDS011;4976;46.786;7.632;2023-03-20T09:54:03;1.40;;;1.23;;
9874;SDS011;4976;46.786;7.632;2023-03-20T09:56:35;1.77;;;1.20;;
9874;SDS011;4976;46.786;7.632;2023-03-20T09:59:04;1.40;;;1.30;;
9874;SDS011;4976;46.786;7.632;2023-03-20T10:01:34;1.20;;;1.20;;
9874;SDS011;4976;46.786;7.632;2023-03-20T10:04:11;1.77;;;1.20;;
9874;SDS011;4976;46.786;7.632;2023-03-20T10:06:38;2.20;;;1.40;;
9874;SDS011;4976;46.786;7.632;2023-03-20T10:09:09;2.50;;;1.53;;
9874;SDS011;4976;46.786;7.632;2023-03-20T10:11:48;1.27;;;1.20;;
9874;SDS011;4976;46.786;7.632;2023-03-20T10:14:26;1.50;;;1.40;;
9874;SDS011;4976;46.786;7.632;2023-03-20T10:19:55;1.60;;;1.50;;
9874;SDS011;4976;46.786;7.632;2023-03-20T10:22:25;1.10;;;1.10;;
9874;SDS011;4976;46.786;7.632;2023-03-20T10:24:58;2.10;;;1.70;;
9874;SDS011;4976;46.786;7.632;2023-03-20T10:27:33;1.40;;;1.30;;
9874;SDS011;4976;46.786;7.632;2023-03-20T10:30:17;1.10;;;1.10;;
9874;SDS011;4976;46.786;7.632;2023-03-20T10:32:57;1.10;;;1.10;;
9874;SDS011;4976;46.786;7.632;2023-03-20T10:35:34;1.30;;;1.20;;
9874;SDS011;4976;46.786;7.632;2023-03-20T10:38:11;1.20;;;1.10;;
9874;SDS011;4976;46.786;7.632;2023-03-20T10:40:50;1.23;;;1.17;;
9874;SDS011;4976;46.786;7.632;2023-03-20T10:43:19;1.60;;;1.30;;
9874;SDS011;4976;46.786;7.632;2023-03-20T10:45:51;1.30;;;1.10;;
9874;SDS011;4976;46.786;7.632;2023-03-20T10:48:26;1.30;;;1.20;;
9874;SDS011;4976;46.786;7.632;2023-03-20T10:50:59;1.73;;;1.40;;
9874;SDS011;4976;46.786;7.632;2023-03-20T10:53:30;1.10;;;1.10;;
9874;SDS011;4976;46.786;7.632;2023-03-20T10:56:04;1.20;;;1.13;;
9874;SDS011;4976;46.786;7.632;2023-03-20T10:58:34;2.00;;;1.20;;
9874;SDS011;4976;46.786;7.632;2023-03-20T11:01:05;1.13;;;1.10;;
9874;SDS011;4976;46.786;7.632;2023-03-20T11:03:32;2.10;;;1.00;;
9874;SDS011;4976;46.786;7.632;2023-03-20T11:06:04;0.80;;;0.80;;
9874;SDS011;4976;46.786;7.632;2023-03-20T11:08:39;1.33;;;0.97;;
9874;SDS011;4976;46.786;7.632;2023-03-20T11:11:13;0.90;;;0.90;;
9874;SDS011;4976;46.786;7.632;2023-03-20T11:13:47;0.83;;;0.83;;
9874;SDS011;4976;46.786;7.632;2023-03-20T11:16:19;1.53;;;1.07;;
9874;SDS011;4976;46.786;7.632;2023-03-20T11:18:48;0.70;;;0.70;;
9874;SDS011;4976;46.786;7.632;2023-03-20T11:21:19;0.73;;;0.73;;
9874;SDS011;4976;46.786;7.632;2023-03-20T11:23:50;1.10;;;1.10;;
9874;SDS011;4976;46.786;7.632;2023-03-20T11:26:19;1.00;;;0.90;;
9874;SDS011;4976;46.786;7.632;2023-03-20T11:29:00;1.60;;;1.07;;
9874;SDS011;4976;46.786;7.632;2023-03-20T11:31:29;1.00;;;1.00;;
9874;SDS011;4976;46.786;7.632;2023-03-20T11:34:08;0.90;;;0.90;;
9874;SDS011;4976;46.786;7.632;2023-03-20T11:36:51;0.70;;;0.70;;
9874;SDS011;4976;46.786;7.632;2023-03-20T11:39:56;0.77;;;0.77;;
9874;SDS011;4976;46.786;7.632;2023-03-20T11:42:28;0.80;;;0.80;;
9874;SDS011;4976;46.786;7.632;2023-03-20T11:44:57;0.90;;;0.90;;
9874;SDS011;4976;46.786;7.632;2023-03-20T11:47:27;0.80;;;0.80;;
9874;SDS011;4976;46.786;7.632;2023-03-20T11:49:59;0.80;;;0.80;;
9874;SDS011;4976;46.786;7.632;2023-03-20T11:52:31;1.03;;;0.93;;
9874;SDS011;4976;46.786;7.632;2023-03-20T11:55:02;0.80;;;0.80;;
9874;SDS011;4976;46.786;7.632;2023-03-20T11:57:33;0.93;;;0.93;;
9874;SDS011;4976;46.786;7.632;2023-03-20T12:00:03;1.03;;;0.70;;
9874;SDS011;4976;46.786;7.632;2023-03-20T12:02:34;0.80;;;0.80;;
9874;SDS011;4976;46.786;7.632;2023-03-20T12:05:16;1.00;;;1.00;;
9874;SDS011;4976;46.786;7.632;2023-03-20T12:07:52;0.90;;;0.90;;
9874;SDS011;4976;46.786;7.632;2023-03-20T12:10:22;0.70;;;0.70;;
9874;SDS011;4976;46.786;7.632;2023-03-20T12:12:54;0.80;;;0.80;;
9874;SDS011;4976;46.786;7.632;2023-03-20T12:15:25;0.90;;;0.90;;
9874;SDS011;4976;46.786;7.632;2023-03-20T12:17:56;1.00;;;1.00;;
9874;SDS011;4976;46.786;7.632;2023-03-20T12:20:28;1.00;;;1.00;;
9874;SDS011;4976;46.786;7.632;2023-03-20T12:23:01;0.80;;;0.80;;
9874;SDS011;4976;46.786;7.632;2023-03-20T12:25:37;0.70;;;0.70;;
9874;SDS011;4976;46.786;7.632;2023-03-20T12:28:11;1.07;;;1.07;;
9874;SDS011;4976;46.786;7.632;2023-03-20T12:31:02;1.03;;;0.97;;
9874;SDS011;4976;46.786;7.632;2023-03-20T12:33:40;1.10;;;1.00;;
9874;SDS011;4976;46.786;7.632;2023-03-20T12:36:12;0.70;;;0.70;;
9874;SDS011;4976;46.786;7.632;2023-03-20T12:38:41;0.60;;;0.60;;
9874;SDS011;4976;46.786;7.632;2023-03-20T12:41:10;0.80;;;0.80;;
9874;SDS011;4976;46.786;7.632;2023-03-20T12:46:33;0.70;;;0.70;;
9874;SDS011;4976;46.786;7.632;2023-03-20T12:49:10;0.87;;;0.87;;
9874;SDS011;4976;46.786;7.632;2023-03-20T12:51:52;0.73;;;0.73;;
9874;SDS011;4976;46.786;7.632;2023-03-20T12:54:31;1.70;;;0.80;;
9874;SDS011;4976;46.786;7.632;2023-03-20T12:57:13;0.97;;;0.87;;
9874;SDS011;4976;46.786;7.632;2023-03-20T12:59:50;0.67;;;0.67;;
9874;SDS011;4976;46.786;7.632;2023-03-20T13:02:33;0.80;;;0.80;;
9874;SDS011;4976;46.786;7.632;2023-03-20T13:05:17;0.70;;;0.70;;
9874;SDS011;4976;46.786;7.632;2023-03-20T13:07:54;0.70;;;0.70;;
9874;SDS011;4976;46.786;7.632;2023-03-20T13:10:34;0.83;;;0.83;;
9874;SDS011;4976;46.786;7.632;2023-03-20T13:13:06;0.73;;;0.73;;
9874;SDS011;4976;46.786;7.632;2023-03-20T13:15:48;0.70;;;0.70;;
9874;SDS011;4976;46.786;7.632;2023-03-20T13:18:26;0.60;;;0.60;;
9874;SDS011;4976;46.786;7.632;2023-03-20T13:21:07;0.63;;;0.63;;
9874;SDS011;4976;46.786;7.632;2023-03-20T13:23:40;0.63;;;0.63;;
9874;SDS011;4976;46.786;7.632;2023-03-20T13:26:20;0.77;;;0.77;;
9874;SDS011;4976;46.786;7.632;2023-03-20T13:28:58;0.73;;;0.73;;
9874;SDS011;4976;46.786;7.632;2023-03-20T13:31:35;0.83;;;0.83;;
9874;SDS011;4976;46.786;7.632;2023-03-20T13:34:13;0.80;;;0.80;;
9874;SDS011;4976;46.786;7.632;2023-03-20T13:36:54;0.60;;;0.60;;
9874;SDS011;4976;46.786;7.632;2023-03-20T13:39:32;0.70;;;0.70;;
9874;SDS011;4976;46.786;7.632;2023-03-20T13:42:03;0.97;;;0.80;;
9874;SDS011;4976;46.786;7.632;2023-03-20T13:44:35;0.70;;;0.70;;
9874;SDS011;4976;46.786;7.632;2023-03-20T13:47:04;0.83;;;0.77;;
9874;SDS011;4976;46.786;7.632;2023-03-20T13:49:36;1.07;;;1.00;;
9874;SDS011;4976;46.786;7.632;2023-03-20T13:52:07;0.80;;;0.80;;
9874;SDS011;4976;46.786;7.632;2023-03-20T13:54:44;0.90;;;0.90;;
9874;SDS011;4976;46.786;7.632;2023-03-20T13:57:22;1.03;;;0.90;;
9874;SDS011;4976;46.786;7.632;2023-03-20T14:00:13;0.60;;;0.60;;
9874;SDS011;4976;46.786;7.632;2023-03-20T14:02:55;2.77;;;0.70;;
9874;SDS011;4976;46.786;7.632;2023-03-20T14:05:45;0.70;;;0.70;;
9874;SDS011;4976;46.786;7.632;2023-03-20T14:08:21;0.83;;;0.77;;
9874;SDS011;4976;46.786;7.632;2023-03-20T14:11:03;0.70;;;0.70;;
9874;SDS011;4976;46.786;7.632;2023-03-20T14:13:41;0.90;;;0.90;;
9874;SDS011;4976;46.786;7.632;2023-03-20T14:16:12;0.80;;;0.80;;
9874;SDS011;4976;46.786;7.632;2023-03-20T14:18:42;0.80;;;0.80;;
9874;SDS011;4976;46.786;7.632;2023-03-20T14:21:11;0.70;;;0.70;;
9874;SDS011;4976;46.786;7.632;2023-03-20T14:23:42;0.90;;;0.90;;
9874;SDS011;4976;46.786;7.632;2023-03-20T14:26:18;0.90;;;0.73;;
9874;SDS011;4976;46.786;7.632;2023-03-20T14:28:54;0.80;;;0.80;;
9874;SDS011;4976;46.786;7.632;2023-03-20T14:31:29;0.70;;;0.70;;
9874;SDS011;4976;46.786;7.632;2023-03-20T14:33:59;0.80;;;0.80;;
9874;SDS011;4976;46.786;7.632;2023-03-20T14:36:46;1.27;;;0.73;;
9874;SDS011;4976;46.786;7.632;2023-03-20T14:39:20;0.80;;;0.80;;
9874;SDS011;4976;46.786;7.632;2023-03-20T14:42:02;1.23;;;0.67;;
9874;SDS011;4976;46.786;7.632;2023-03-20T14:44:46;0.70;;;0.70;;
9874;SDS011;4976;46.786;7.632;2023-03-20T14:47:23;0.63;;;0.63;;
9874;SDS011;4976;46.786;7.632;2023-03-20T14:49:56;0.70;;;0.70;;
9874;SDS011;4976;46.786;7.632;2023-03-20T14:52:32;0.70;;;0.70;;
9874;SDS011;4976;46.786;7.632;2023-03-20T14:55:29;0.70;;;0.70;;
9874;SDS011;4976;46.786;7.632;2023-03-20T14:58:02;1.30;;;0.70;;
9874;SDS011;4976;46.786;7.632;2023-03-20T15:00:34;0.70;;;0.70;;
9874;SDS011;4976;46.786;7.632;2023-03-20T15:03:13;0.70;;;0.70;;
9874;SDS011;4976;46.786;7.632;2023-03-20T15:05:44;0.70;;;0.70;;
9874;SDS011;4976;46.786;7.632;2023-03-20T15:08:15;0.90;;;0.90;;
9874;SDS011;4976;46.786;7.632;2023-03-20T15:10:48;1.30;;;0.80;;
9874;SDS011;4976;46.786;7.632;2023-03-20T15:13:18;0.70;;;0.70;;
9874;SDS011;4976;46.786;7.632;2023-03-20T15:15:52;1.00;;;0.90;;
9874;SDS011;4976;46.786;7.632;2023-03-20T15:18:24;0.70;;;0.70;;
9874;SDS011;4976;46.786;7.632;2023-03-20T15:21:09;0.77;;;0.77;;
9874;SDS011;4976;46.786;7.632;2023-03-20T15:23:40;0.70;;;0.70;;
9874;SDS011;4976;46.786;7.632;2023-03-20T15:26:09;0.83;;;0.70;;
9874;SDS011;4976;46.786;7.632;2023-03-20T15:28:37;0.70;;;0.70;;
9874;SDS011;4976;46.786;7.632;2023-03-20T15:31:04;0.80;;;0.80;;
9874;SDS011;4976;46.786;7.632;2023-03-20T15:33:33;0.70;;;0.70;;
9874;SDS011;4976;46.786;7.632;2023-03-20T15:36:05;1.07;;;0.80;;
9874;SDS011;4976;46.786;7.632;2023-03-20T15:38:38;0.77;;;0.77;;
9874;SDS011;4976;46.786;7.632;2023-03-20T15:41:20;0.90;;;0.90;;
9874;SDS011;4976;46.786;7.632;2023-03-20T15:43:52;0.70;;;0.70;;
9874;SDS011;4976;46.786;7.632;2023-03-20T15:46:26;0.80;;;0.80;;
9874;SDS011;4976;46.786;7.632;2023-03-20T15:48:53;0.90;;;0.80;;
9874;SDS011;4976;46.786;7.632;2023-03-20T15:51:22;0.80;;;0.80;;
9874;SDS011;4976;46.786;7.632;2023-03-20T15:53:52;0.87;;;0.87;;
9874;SDS011;4976;46.786;7.632;2023-03-20T15:56:20;0.80;;;0.80;;
9874;SDS011;4976;46.786;7.632;2023-03-20T15:58:52;0.70;;;0.70;;
9874;SDS011;4976;46.786;7.632;2023-03-20T16:01:23;0.80;;;0.80;;
9874;SDS011;4976;46.786;7.632;2023-03-20T16:03:51;1.70;;;1.10;;
9874;SDS011;4976;46.786;7.632;2023-03-20T16:06:24;1.57;;;1.00;;
9874;SDS011;4976;46.786;7.632;2023-03-20T16:08:57;0.90;;;0.90;;
9874;SDS011;4976;46.786;7.632;2023-03-20T16:11:54;0.93;;;0.93;;
9874;SDS011;4976;46.786;7.632;2023-03-20T16:14:26;0.80;;;0.80;;
9874;SDS011;4976;46.786;7.632;2023-03-20T16:17:15;0.80;;;0.80;;
9874;SDS011;4976;46.786;7.632;2023-03-20T16:19:43;0.83;;;0.80;;
9874;SDS011;4976;46.786;7.632;2023-03-20T16:22:18;0.80;;;0.80;;
9874;SDS011;4976;46.786;7.632;2023-03-20T16:24:49;0.87;;;0.87;;
9874;SDS011;4976;46.786;7.632;2023-03-20T16:27:22;0.70;;;0.70;;
9874;SDS011;4976;46.786;7.632;2023-03-20T16:29:54;0.80;;;0.80;;
9874;SDS011;4976;46.786;7.632;2023-03-20T16:32:28;1.10;;;1.00;;
9874;SDS011;4976;46.786;7.632;2023-03-20T16:35:01;0.80;;;0.80;;
9874;SDS011;4976;46.786;7.632;2023-03-20T16:37:30;0.80;;;0.80;;
9874;SDS011;4976;46.786;7.632;2023-03-20T16:40:03;0.80;;;0.80;;
9874;SDS011;4976;46.786;7.632;2023-03-20T16:42:46;0.80;;;0.80;;
9874;SDS011;4976;46.786;7.632;2023-03-20T16:48:16;1.03;;;1.00;;
9874;SDS011;4976;46.786;7.632;2023-03-20T16:50:53;1.10;;;1.10;;
9874;SDS011;4976;46.786;7.632;2023-03-20T16:53:25;0.90;;;0.90;;
9874;SDS011;4976;46.786;7.632;2023-03-20T16:55:55;0.80;;;0.80;;
9874;SDS011;4976;46.786;7.632;2023-03-20T16:58:24;0.80;;;0.80;;
9874;SDS011;4976;46.786;7.632;2023-03-20T17:01:01;0.80;;;0.80;;
9874;SDS011;4976;46.786;7.632;2023-03-20T17:03:44;1.13;;;1.07;;
9874;SDS011;4976;46.786;7.632;2023-03-20T17:09:23;0.80;;;0.80;;
9874;SDS011;4976;46.786;7.632;2023-03-20T17:11:57;0.90;;;0.90;;
9874;SDS011;4976;46.786;7.632;2023-03-20T17:14:27;1.00;;;0.97;;
9874;SDS011;4976;46.786;7.632;2023-03-20T17:16:56;0.70;;;0.70;;
9874;SDS011;4976;46.786;7.632;2023-03-20T17:19:24;0.90;;;0.90;;
9874;SDS011;4976;46.786;7.632;2023-03-20T17:21:51;1.20;;;0.93;;
9874;SDS011;4976;46.786;7.632;2023-03-20T17:24:27;0.80;;;0.80;;
9874;SDS011;4976;46.786;7.632;2023-03-20T17:26:57;2.27;;;0.90;;
9874;SDS011;4976;46.786;7.632;2023-03-20T17:29:24;0.83;;;0.83;;
9874;SDS011;4976;46.786;7.632;2023-03-20T17:31:52;0.80;;;0.80;;
9874;SDS011;4976;46.786;7.632;2023-03-20T17:34:23;0.90;;;0.80;;
9874;SDS011;4976;46.786;7.632;2023-03-20T17:36:50;1.00;;;0.80;;
9874;SDS011;4976;46.786;7.632;2023-03-20T17:39:18;0.70;;;0.70;;
9874;SDS011;4976;46.786;7.632;2023-03-20T17:41:48;0.63;;;0.63;;
9874;SDS011;4976;46.786;7.632;2023-03-20T17:44:16;0.70;;;0.70;;
9874;SDS011;4976;46.786;7.632;2023-03-20T17:46:45;3.57;;;1.20;;
9874;SDS011;4976;46.786;7.632;2023-03-20T17:49:15;1.40;;;1.20;;
9874;SDS011;4976;46.786;7.632;2023-03-20T17:51:48;1.03;;;0.90;;
9874;SDS011;4976;46.786;7.632;2023-03-20T17:54:15;0.80;;;0.80;;
9874;SDS011;4976;46.786;7.632;2023-03-20T17:56:42;1.20;;;0.97;;
9874;SDS011;4976;46.786;7.632;2023-03-20T17:59:10;1.10;;;1.00;;
9874;SDS011;4976;46.786;7.632;2023-03-20T18:01:39;1.10;;;1.00;;
9874;SDS011;4976;46.786;7.632;2023-03-20T18:04:07;1.03;;;1.03;;
9874;SDS011;4976;46.786;7.632;2023-03-20T18:06:34;1.10;;;1.00;;
9874;SDS011;4976;46.786;7.632;2023-03-20T18:09:03;1.13;;;1.03;;
9874;SDS011;4976;46.786;7.632;2023-03-20T18:11:30;1.30;;;1.20;;
9874;SDS011;4976;46.786;7.632;2023-03-20T18:13:57;2.53;;;1.10;;
9874;SDS011;4976;46.786;7.632;2023-03-20T18:16:28;1.37;;;1.20;;
9874;SDS011;4976;46.786;7.632;2023-03-20T18:18:56;1.20;;;1.10;;
9874;SDS011;4976;46.786;7.632;2023-03-20T18:21:25;0.80;;;0.80;;
9874;SDS011;4976;46.786;7.632;2023-03-20T18:23:53;0.80;;;0.80;;
9874;SDS011;4976;46.786;7.632;2023-03-20T18:26:22;1.30;;;1.20;;
9874;SDS011;4976;46.786;7.632;2023-03-20T18:28:51;0.93;;;0.93;;
9874;SDS011;4976;46.786;7.632;2023-03-20T18:31:23;2.27;;;1.10;;
9874;SDS011;4976;46.786;7.632;2023-03-20T18:33:51;0.80;;;0.80;;
9874;SDS011;4976;46.786;7.632;2023-03-20T18:36:19;1.03;;;1.00;;
9874;SDS011;4976;46.786;7.632;2023-03-20T18:38:47;1.77;;;0.90;;
9874;SDS011;4976;46.786;7.632;2023-03-20T18:41:18;1.20;;;1.10;;
9874;SDS011;4976;46.786;7.632;2023-03-20T18:43:47;2.17;;;1.10;;
9874;SDS011;4976;46.786;7.632;2023-03-20T18:46:25;2.10;;;1.00;;
9874;SDS011;4976;46.786;7.632;2023-03-20T18:48:53;0.90;;;0.90;;
9874;SDS011;4976;46.786;7.632;2023-03-20T18:51:20;1.10;;;1.00;;
9874;SDS011;4976;46.786;7.632;2023-03-20T18:53:48;3.50;;;0.90;;
9874;SDS011;4976;46.786;7.632;2023-03-20T18:56:16;0.80;;;0.80;;
9874;SDS011;4976;46.786;7.632;2023-03-20T18:58:48;0.93;;;0.90;;
9874;SDS011;4976;46.786;7.632;2023-03-20T19:01:16;0.90;;;0.90;;
9874;SDS011;4976;46.786;7.632;2023-03-20T19:03:44;0.83;;;0.80;;
9874;SDS011;4976;46.786;7.632;2023-03-20T19:06:13;0.83;;;0.83;;
9874;SDS011;4976;46.786;7.632;2023-03-20T19:08:41;1.00;;;1.00;;
9874;SDS011;4976;46.786;7.632;2023-03-20T19:11:10;2.40;;;1.27;;
9874;SDS011;4976;46.786;7.632;2023-03-20T19:13:40;1.20;;;1.10;;
9874;SDS011;4976;46.786;7.632;2023-03-20T19:16:20;1.20;;;1.10;;
9874;SDS011;4976;46.786;7.632;2023-03-20T19:18:49;1.27;;;1.17;;
9874;SDS011;4976;46.786;7.632;2023-03-20T19:21:16;1.20;;;1.10;;
9874;SDS011;4976;46.786;7.632;2023-03-20T19:23:44;1.00;;;1.00;;
9874;SDS011;4976;46.786;7.632;2023-03-20T19:26:14;0.90;;;0.90;;
9874;SDS011;4976;46.786;7.632;2023-03-20T19:28:45;2.13;;;1.03;;
9874;SDS011;4976;46.786;7.632;2023-03-20T19:31:12;1.43;;;0.97;;
9874;SDS011;4976;46.786;7.632;2023-03-20T19:33:42;1.17;;;1.00;;
9874;SDS011;4976;46.786;7.632;2023-03-20T19:36:16;1.43;;;1.00;;
9874;SDS011;4976;46.786;7.632;2023-03-20T19:38:48;1.53;;;1.40;;
9874;SDS011;4976;46.786;7.632;2023-03-20T19:41:16;0.90;;;0.90;;
9874;SDS011;4976;46.786;7.632;2023-03-20T19:43:43;2.07;;;1.30;;
9874;SDS011;4976;46.786;7.632;2023-03-20T19:46:11;1.30;;;1.20;;
9874;SDS011;4976;46.786;7.632;2023-03-20T19:48:42;1.60;;;1.50;;
9874;SDS011;4976;46.786;7.632;2023-03-20T19:51:12;1.20;;;1.10;;
9874;SDS011;4976;46.786;7.632;2023-03-20T19:53:42;1.00;;;1.00;;
9874;SDS011;4976;46.786;7.632;2023-03-20T19:56:10;0.90;;;0.90;;
9874;SDS011;4976;46.786;7.632;2023-03-20T19:58:38;1.40;;;1.30;;
9874;SDS011;4976;46.786;7.632;2023-03-20T20:01:06;1.13;;;1.07;;
9874;SDS011;4976;46.786;7.632;2023-03-20T20:03:36;6.67;;;2.00;;
9874;SDS011;4976;46.786;7.632;2023-03-20T20:06:10;1.93;;;1.73;;
9874;SDS011;4976;46.786;7.632;2023-03-20T20:08:39;1.67;;;1.20;;
9874;SDS011;4976;46.786;7.632;2023-03-20T20:11:09;1.50;;;1.40;;
9874;SDS011;4976;46.786;7.632;2023-03-20T20:13:41;1.53;;;1.43;;
9874;SDS011;4976;46.786;7.632;2023-03-20T20:16:09;1.30;;;1.20;;
9874;SDS011;4976;46.786;7.632;2023-03-20T20:18:40;1.47;;;1.30;;
9874;SDS011;4976;46.786;7.632;2023-03-20T20:21:08;1.47;;;1.37;;
9874;SDS011;4976;46.786;7.632;2023-03-20T20:23:35;1.70;;;1.30;;
9874;SDS011;4976;46.786;7.632;2023-03-20T20:26:03;1.40;;;1.30;;
9874;SDS011;4976;46.786;7.632;2023-03-20T20:28:31;1.57;;;1.37;;
9874;SDS011;4976;46.786;7.632;2023-03-20T20:30:59;2.20;;;1.43;;
9874;SDS011;4976;46.786;7.632;2023-03-20T20:33:27;1.57;;;1.40;;
9874;SDS011;4976;46.786;7.632;2023-03-20T20:35:55;1.37;;;1.27;;
9874;SDS011;4976;46.786;7.632;2023-03-20T20:38:24;1.30;;;1.20;;
9874;SDS011;4976;46.786;7.632;2023-03-20T20:40:51;1.57;;;1.27;;
9874;SDS011;4976;46.786;7.632;2023-03-20T20:43:19;1.10;;;1.10;;
9874;SDS011;4976;46.786;7.632;2023-03-20T20:45:46;1.07;;;1.07;;
9874;SDS011;4976;46.786;7.632;2023-03-20T20:48:16;3.23;;;1.63;;
9874;SDS011;4976;46.786;7.632;2023-03-20T20:50:43;1.60;;;1.40;;
9874;SDS011;4976;46.786;7.632;2023-03-20T20:53:10;1.50;;;1.40;;
9874;SDS011;4976;46.786;7.632;2023-03-20T20:55:39;1.70;;;1.60;;
9874;SDS011;4976;46.786;7.632;2023-03-20T20:58:07;1.67;;;1.53;;
9874;SDS011;4976;46.786;7.632;2023-03-20T21:00:35;2.47;;;1.43;;
9874;SDS011;4976;46.786;7.632;2023-03-20T21:03:02;1.90;;;1.40;;
9874;SDS011;4976;46.786;7.632;2023-03-20T21:05:30;1.40;;;1.30;;
9874;SDS011;4976;46.786;7.632;2023-03-20T21:07:58;1.57;;;1.30;;
9874;SDS011;4976;46.786;7.632;2023-03-20T21:10:27;1.97;;;1.20;;
9874;SDS011;4976;46.786;7.632;2023-03-20T21:12:55;1.07;;;1.00;;
9874;SDS011;4976;46.786;7.632;2023-03-20T21:15:22;1.40;;;1.30;;
9874;SDS011;4976;46.786;7.632;2023-03-20T21:17:50;1.40;;;1.30;;
9874;SDS011;4976;46.786;7.632;2023-03-20T21:20:17;1.40;;;1.30;;
9874;SDS011;4976;46.786;7.632;2023-03-20T21:22:44;1.77;;;1.47;;
9874;SDS011;4976;46.786;7.632;2023-03-20T21:25:11;1.00;;;1.00;;
9874;SDS011;4976;46.786;7.632;2023-03-20T21:27:41;1.40;;;1.30;;
9874;SDS011;4976;46.786;7.632;2023-03-20T21:30:10;1.47;;;1.20;;
9874;SDS011;4976;46.786;7.632;2023-03-20T21:32:37;2.40;;;1.47;;
9874;SDS011;4976;46.786;7.632;2023-03-20T21:35:05;1.37;;;1.20;;
9874;SDS011;4976;46.786;7.632;2023-03-20T21:37:33;1.50;;;1.20;;
9874;SDS011;4976;46.786;7.632;2023-03-20T21:40:01;1.00;;;1.00;;
9874;SDS011;4976;46.786;7.632;2023-03-20T21:42:30;1.47;;;1.37;;
9874;SDS011;4976;46.786;7.632;2023-03-20T21:44:58;1.27;;;1.10;;
9874;SDS011;4976;46.786;7.632;2023-03-20T21:47:28;1.30;;;1.20;;
9874;SDS011;4976;46.786;7.632;2023-03-20T21:49:55;1.03;;;1.00;;
9874;SDS011;4976;46.786;7.632;2023-03-20T21:52:26;1.17;;;1.17;;
9874;SDS011;4976;46.786;7.632;2023-03-20T21:55:00;1.17;;;1.07;;
9874;SDS011;4976;46.786;7.632;2023-03-20T21:57:27;1.37;;;1.27;;
9874;SDS011;4976;46.786;7.632;2023-03-20T21:59:54;1.47;;;1.27;;
9874;SDS011;4976;46.786;7.632;2023-03-20T22:02:21;1.20;;;1.03;;
9874;SDS011;4976;46.786;7.632;2023-03-20T22:04:50;1.80;;;1.10;;
9874;SDS011;4976;46.786;7.632;2023-03-20T22:07:18;2.47;;;1.20;;
9874;SDS011;4976;46.786;7.632;2023-03-20T22:09:48;1.10;;;1.00;;
9874;SDS011;4976;46.786;7.632;2023-03-20T22:12:15;1.73;;;1.03;;
9874;SDS011;4976;46.786;7.632;2023-03-20T22:14:45;1.20;;;1.10;;
9874;SDS011;4976;46.786;7.632;2023-03-20T22:17:12;1.17;;;1.00;;
9874;SDS011;4976;46.786;7.632;2023-03-20T22:19:40;1.13;;;1.10;;
9874;SDS011;4976;46.786;7.632;2023-03-20T22:22:11;1.33;;;1.23;;
9874;SDS011;4976;46.786;7.632;2023-03-20T22:24:41;1.20;;;1.10;;
9874;SDS011;4976;46.786;7.632;2023-03-20T22:27:08;1.20;;;1.10;;
9874;SDS011;4976;46.786;7.632;2023-03-20T22:29:35;1.23;;;1.13;;
9874;SDS011;4976;46.786;7.632;2023-03-20T22:32:02;1.00;;;1.00;;
9874;SDS011;4976;46.786;7.632;2023-03-20T22:34:30;1.40;;;1.30;;